Latest Weather Observations for Noonamah

IDD60801

Issued at 9:01 am CST Saturday 29 April 2017 (issued every 30 minutes, with the page automatically refreshed every 10 minutes)

About weather observations | Map of weather stations | Latest weather observations for NT | Other Formats
Station Details ID: 014314 Name: NOONAMAH AIRSTRIP Lat: -12.61 Lon: 131.05 Height: 17.5 m
Data from the previous 72 hours. | See also: Recent months at Noonamah
Date/Time
CST
Temp
°C
App
Temp
°C
Dew
Point
°C
Rel
Hum
%
Delta-T
°C
Wind Press
QNH
hPa
Press
MSL
hPa
Rain since
9am
mm
Dir  Spd
km/h
Gust
km/h
Spd
kts
Gust
kts
29/09:00am 25.8 24.8 13.3 46 7.3 SE 11 19 6 10 1013.2 1013.0 0.2
29/08:30am 25.0 24.4 13.5 48 6.7 SE 9 13 5 7 1012.8 1012.6 0.2
29/08:00am 23.9 23.6 13.4 51 6.1 SE 7 11 4 6 1012.4 1012.2 0.2
29/07:30am 22.6 22.8 14.2 59 4.9 SE 6 7 3 4 1012.0 1011.8 0.2
29/07:00am 21.8 21.6 13.7 60 4.7 ESE 7 11 4 6 1011.6 1011.4 0.2
29/06:30am 22.0 21.4 13.6 59 4.9 ESE 9 15 5 8 1011.2 1011.0 0.2
29/06:00am 21.6 21.6 14.3 63 4.3 ESE 7 11 4 6 1011.3 1011.1 0.2
29/05:30am 21.6 21.5 15.0 66 3.9 SE 9 11 5 6 1011.2 1011.0 0.2
29/05:00am 20.3 21.8 17.7 85 1.6 SE 6 7 3 4 1011.5 1011.3 0.2
29/04:30am 20.4 22.9 18.2 87 1.4 SE 2 6 1 3 1011.6 1011.4 0.2
29/04:00am 20.1 22.6 17.3 84 1.7 CALM 0 0 0 0 1011.6 1011.4 0.2
29/03:30am 20.8 23.5 17.8 83 1.9 CALM 0 0 0 0 1011.5 1011.3 0.2
29/03:00am 21.7 24.1 17.1 75 2.8 CALM 0 2 0 1 1011.2 1011.0 0.2
29/02:30am 22.9 23.8 16.0 65 4.2 SE 6 9 3 5 1011.1 1010.9 0.2
29/02:00am 23.6 24.3 16.1 62 4.6 SE 7 13 4 7 1011.1 1010.9 0.2
29/01:30am 23.8 25.2 17.8 69 3.7 SE 7 11 4 6 1011.3 1011.1 0.2
29/01:00am 23.1 25.9 20.4 85 1.8 SE 6 11 3 6 1011.4 1011.2 0.2
29/12:30am 22.7 26.4 21.5 93 0.8 SE 4 4 2 2 1012.1 1011.9 0.2
29/12:00am 22.8 26.8 21.4 92 0.9 S 2 4 1 2 1012.6 1012.4 0.2
 
Date/Time
CST
Temp
°C
App
Temp
°C
Dew
Point
°C
Rel
Hum
%
Delta-T
°C
Wind Press
QNH
hPa
Press
MSL
hPa
Rain since
9am
mm
Dir  Spd
km/h
Gust
km/h
Spd
kts
Gust
kts
28/11:30pm 22.9 27.2 21.2 90 1.1 CALM 0 0 0 0 1012.8 1012.6 0.2
28/11:00pm 23.7 28.0 21.2 86 1.6 CALM 0 0 0 0 1013.0 1012.8 0.2
28/10:30pm 24.1 27.0 21.0 83 2.0 S 7 9 4 5 1013.0 1012.8 0.2
28/10:00pm 24.2 28.8 21.7 86 1.7 CALM 0 0 0 0 1013.4 1013.2 0.2
28/09:30pm 24.4 28.2 21.7 85 1.8 SSW 4 6 2 3 1013.5 1013.3 0.2
28/09:00pm 24.4 28.2 21.7 85 1.8 SSW 4 6 2 3 1013.3 1013.1 0.2
28/08:30pm 24.6 28.5 21.9 85 1.8 S 4 4 2 2 1012.9 1012.7 0.2
28/08:00pm 25.0 29.6 21.7 82 2.2 CALM 0 2 0 1 1012.7 1012.5 0.2
28/07:30pm 25.6 30.5 22.3 82 2.2 CALM 0 0 0 0 1012.3 1012.1 0.2
28/07:00pm 25.9 30.5 21.8 78 2.7 CALM 0 2 0 1 1011.8 1011.6 0.2
28/06:30pm 26.1 30.1 22.0 78 2.7 NW 4 6 2 3 1011.6 1011.4 0.2
28/06:00pm 26.8 31.1 21.1 71 3.8 CALM 0 0 0 0 1011.1 1010.9 0.2
28/05:30pm 27.2 31.1 20.3 66 4.5 CALM 0 0 0 0 1010.8 1010.6 0.2
28/05:00pm 27.6 31.2 19.7 62 5.1 CALM 0 0 0 0 1010.6 1010.4 0.2
28/04:30pm 27.8 31.0 18.8 58 5.8 CALM 0 0 0 0 1010.6 1010.4 0.2
28/04:00pm 27.9 31.0 19.4 60 5.5 ENE 2 6 1 3 1010.4 1010.2 0.2
28/03:30pm 27.9 29.9 19.1 58 5.7 ENE 7 13 4 7 1010.2 1010.0 0.2
28/03:00pm 28.3 29.7 17.8 53 6.7 ESE 7 11 4 6 1010.7 1010.5 0.2
28/02:30pm 28.3 29.6 17.5 52 6.8 ESE 7 11 4 6 1010.8 1010.6 0.2
28/02:00pm 28.0 29.1 17.2 52 6.8 SE 7 11 4 6 1011.2 1011.0 0.2
28/01:30pm 28.3 28.9 16.9 50 7.1 SE 9 15 5 8 1011.5 1011.3 0.2
28/01:00pm 27.8 28.0 16.7 50 6.9 ESE 11 17 6 9 1011.9 1011.7 0.2
28/12:30pm 27.3 26.8 16.0 50 7.0 ESE 13 22 7 12 1012.5 1012.3 0.2
28/12:00pm 27.1 26.8 16.4 52 6.6 SE 13 26 7 14 1012.6 1012.4 0.0
28/11:30am 26.7 26.5 16.6 54 6.3 ESE 13 20 7 11 1013.0 1012.8 0.0
28/11:00am 26.5 26.7 17.6 58 5.6 ESE 13 24 7 13 1013.3 1013.1 0.0
28/10:30am 26.4 26.6 17.7 58 5.5 ESE 13 20 7 11 1013.1 1012.9 0.0
28/10:00am 25.7 25.7 18.1 63 4.8 ESE 15 20 8 11 1013.0 1012.8 0.0
28/09:30am 25.6 26.3 18.8 66 4.3 SE 13 22 7 12 1013.1 1012.9 0.0
28/09:00am 24.9 26.1 19.1 70 3.7 ESE 11 19 6 10 1013.2 1013.0 2.6
28/08:30am 24.7 26.1 19.5 73 3.3 ESE 11 17 6 9 1012.5 1012.3 2.6
28/08:00am 24.3 27.4 21.0 82 2.2 SE 6 7 3 4 1012.5 1012.3 2.6
28/07:30am 24.0 27.3 21.9 88 1.4 SE 7 11 4 6 1012.1 1011.9 2.6
28/07:00am 23.8 28.7 22.4 92 0.9 CALM 0 0 0 0 1012.1 1011.9 2.6
28/06:30am 23.8 28.7 22.4 92 0.9 CALM 0 0 0 0 1011.6 1011.4 2.6
28/06:00am 23.7 27.7 22.0 90 1.1 SE 4 6 2 3 1011.0 1010.8 2.6
28/05:30am 23.7 27.7 22.1 91 1.1 SE 4 7 2 4 1010.6 1010.4 2.6
28/05:00am 23.9 27.9 22.7 93 0.8 ESE 6 9 3 5 1010.5 1010.3 2.6
28/04:30am 24.0 27.9 23.0 94 0.7 ESE 7 9 4 5 1010.5 1010.3 2.6
28/04:00am 24.0 29.3 23.1 95 0.6 CALM 0 0 0 0 1010.7 1010.5 2.6
28/03:30am 23.9 28.0 22.9 94 0.7 ESE 6 9 3 5 1010.6 1010.4 2.6
28/03:00am 23.9 27.8 23.0 95 0.6 SE 7 9 4 5 1010.5 1010.3 2.6
28/02:30am 23.7 28.2 23.0 96 0.5 ESE 4 6 2 3 1010.8 1010.6 2.6
28/02:00am 23.7 28.5 22.9 95 0.5 ESE 2 4 1 2 1010.8 1010.6 2.6
28/01:30am 23.7 27.8 22.9 95 0.5 SE 6 7 3 4 1010.5 1010.3 2.6
28/01:00am 23.8 28.2 22.8 94 0.7 ESE 4 4 2 2 1010.9 1010.7 2.6
28/12:30am 24.0 28.8 22.8 93 0.8 E 2 2 1 1 1011.4 1011.2 2.6
28/12:00am 24.1 28.1 22.7 92 0.9 ESE 6 7 3 4 1011.4 1011.2 2.6
 
Date/Time
CST
Temp
°C
App
Temp
°C
Dew
Point
°C
Rel
Hum
%
Delta-T
°C
Wind Press
QNH
hPa
Press
MSL
hPa
Rain since
9am
mm
Dir  Spd
km/h
Gust
km/h
Spd
kts
Gust
kts
27/11:30pm 24.3 28.2 22.9 92 0.9 SE 7 11 4 6 1011.3 1011.1 2.6
27/11:00pm 24.4 28.4 22.8 91 1.1 ESE 6 11 3 6 1011.7 1011.5 2.6
27/10:30pm 24.6 28.1 22.8 90 1.2 ESE 9 15 5 8 1011.6 1011.4 2.6
27/10:00pm 24.7 27.8 22.9 90 1.2 ESE 11 19 6 10 1011.8 1011.6 2.6
27/09:30pm 24.8 28.5 23.9 95 0.6 ESE 11 19 6 10 1011.9 1011.7 2.6
27/09:00pm 24.7 27.9 23.7 94 0.7 E 13 20 7 11 1011.6 1011.4 2.6
27/08:30pm 24.8 28.8 23.8 94 0.7 ENE 9 15 5 8 1011.6 1011.4 2.4
27/08:00pm 25.1 29.1 23.7 92 1.0 ESE 9 17 5 9 1010.9 1010.7 1.2
27/07:30pm 25.1 28.1 23.3 90 1.2 ESE 13 22 7 12 1010.5 1010.3 1.2
27/07:00pm 25.1 28.8 23.3 90 1.2 E 9 13 5 7 1010.5 1010.3 1.2
27/06:30pm 25.1 30.0 23.7 92 1.0 SSE 4 6 2 3 1009.8 1009.6 1.2
27/06:00pm 25.1 29.2 23.2 89 1.3 SE 7 11 4 6 1009.2 1009.0 1.0
27/05:30pm 26.2 29.9 22.5 80 2.5 NE 7 15 4 8 1009.3 1009.1 0.4
27/05:00pm 27.6 30.7 22.1 72 3.7 E 9 15 5 8 1008.6 1008.4 0.0
27/04:30pm 28.0 31.5 22.2 70 3.9 E 7 15 4 8 1008.2 1008.0 0.0
27/04:00pm 27.8 31.5 22.5 73 3.6 ENE 7 9 4 5 1008.4 1008.2 0.0
27/03:30pm 28.2 31.2 22.0 69 4.2 E 9 13 5 7 1008.4 1008.2 0.0
27/03:00pm 28.7 31.7 22.0 67 4.5 E 9 17 5 9 1008.5 1008.3 0.0
27/02:30pm 28.9 32.1 22.4 68 4.4 ESE 9 17 5 9 1008.8 1008.6 0.0
27/02:00pm 28.4 31.0 21.9 68 4.4 ESE 11 19 6 10 1008.9 1008.7 0.0
27/01:30pm 28.2 30.3 21.7 68 4.4 SE 13 22 7 12 1009.1 1008.9 0.0
27/01:00pm 28.1 29.8 21.6 68 4.4 ESE 15 22 8 12 1009.8 1009.6 0.0
27/12:30pm 28.0 29.4 21.8 69 4.2 SE 17 28 9 15 1010.0 1009.8 0.0
27/12:00pm 27.8 29.2 21.8 70 4.0 SE 17 28 9 15 1010.9 1010.7 0.0
27/11:30am 27.2 30.1 22.4 75 3.2 SE 11 20 6 11 1011.0 1010.8 0.0
27/11:00am 26.5 29.2 22.1 77 3.0 SE 11 17 6 9 1011.5 1011.3 0.0
27/10:30am 26.1 27.7 21.5 76 3.1 SE 15 26 8 14 1011.4 1011.2 0.0
27/10:00am 26.0 27.5 21.2 75 3.2 SE 15 24 8 13 1011.6 1011.4 0.0
27/09:30am 26.0 27.7 21.0 74 3.3 SE 13 19 7 10 1011.7 1011.5 0.0
27/09:00am 25.8 27.0 20.6 73 3.4 ESE 15 24 8 13 1011.5 1011.3 0.0
27/08:30am 25.4 27.2 20.4 74 3.3 ESE 11 19 6 10 1011.0 1010.8 0.0
27/08:00am 25.1 26.8 20.1 74 3.2 SE 11 17 6 9 1010.5 1010.3 0.0
27/07:30am 24.9 26.9 19.9 74 3.2 SE 9 17 5 9 1010.4 1010.2 0.0
27/07:00am 24.9 27.1 19.7 73 3.4 SE 7 11 4 6 1010.0 1009.8 0.0
27/06:30am 24.9 27.2 19.9 74 3.2 SE 7 13 4 7 1009.6 1009.4 0.0
27/06:00am 24.7 27.4 20.6 78 2.7 ESE 7 9 4 5 1009.3 1009.1 0.0
27/05:30am 24.2 27.8 21.3 84 1.9 SE 4 6 2 3 1009.1 1008.9 0.0
27/05:00am 24.3 29.0 22.0 87 1.5 CALM 0 0 0 0 1009.1 1008.9 0.0
27/04:30am 24.5 28.3 21.0 81 2.3 SSE 2 2 1 1 1009.0 1008.8 0.0
27/04:00am 24.4 27.6 20.5 79 2.5 SSE 4 6 2 3 1008.9 1008.7 0.0
27/03:30am 24.7 29.4 22.0 85 1.8 CALM 0 6 0 3 1009.4 1009.2 0.0
27/03:00am 24.9 29.2 21.2 80 2.4 CALM 0 0 0 0 1009.4 1009.2 0.0
27/02:30am 25.2 29.0 20.9 77 2.8 ESE 2 4 1 2 1009.3 1009.1 0.0
27/02:00am 25.4 29.3 21.1 77 2.8 ESE 2 4 1 2 1009.1 1008.9 0.0
27/01:30am 25.9 28.8 20.7 73 3.4 ESE 6 9 3 5 1009.4 1009.2 0.0
27/01:00am 25.9 29.3 21.6 77 2.9 ESE 6 9 3 5 1009.7 1009.5 0.0
27/12:30am 26.2 29.8 22.1 78 2.8 ESE 6 9 3 5 1009.9 1009.7 0.0
27/12:00am 26.6 30.4 22.4 78 2.8 E 6 9 3 5 1009.9 1009.7 0.0
 
Date/Time
CST
Temp
°C
App
Temp
°C
Dew
Point
°C
Rel
Hum
%
Delta-T
°C
Wind Press
QNH
hPa
Press
MSL
hPa
Rain since
9am
mm
Dir  Spd
km/h
Gust
km/h
Spd
kts
Gust
kts
26/11:30pm 26.6 30.7 22.9 80 2.5 ESE 6 9 3 5 1009.8 1009.6 0.0
26/11:00pm 26.5 30.8 23.6 84 2.0 ESE 7 9 4 5 1009.8 1009.6 0.0
26/10:30pm 25.7 31.5 23.9 90 1.2 CALM 0 0 0 0 1009.8 1009.6 0.0
26/10:00pm 26.1 31.9 24.0 88 1.4 CALM 0 2 0 1 1009.7 1009.5 0.0
26/09:30pm 26.4 31.5 24.1 87 1.6 SE 4 4 2 2 1009.6 1009.4 0.0
26/09:00pm 26.6 31.7 24.1 86 1.7 SE 4 6 2 3 1009.5 1009.3 0.0
26/08:30pm 26.7 31.9 24.2 86 1.7 SSE 4 6 2 3 1009.5 1009.3 0.0
26/08:00pm 27.1 32.8 24.4 85 1.9 ESE 2 4 1 2 1009.4 1009.2 0.0
26/07:30pm 27.4 32.9 24.1 82 2.3 ENE 2 4 1 2 1009.5 1009.3 0.0
26/07:00pm 27.7 33.2 24.1 81 2.5 NE 2 4 1 2 1009.4 1009.2 0.0
26/06:30pm 28.2 33.4 24.2 79 2.8 NE 4 6 2 3 1009.0 1008.8 0.0
26/06:00pm 29.0 34.8 23.9 74 3.5 CALM 0 0 0 0 1008.6 1008.4 0.0
26/05:30pm 29.6 34.2 23.1 68 4.5 ESE 4 6 2 3 1008.1 1007.9 0.0
26/05:00pm 29.9 34.5 23.1 67 4.7 SE 4 6 2 3 1007.7 1007.5 0.0
26/04:30pm 29.7 33.3 22.4 65 5.0 SE 7 9 4 5 1007.4 1007.2 0.0
26/04:00pm 29.9 33.5 22.3 63 5.2 ESE 7 13 4 7 1007.3 1007.1 0.0
26/03:30pm 30.0 33.5 22.2 63 5.3 E 7 13 4 7 1007.5 1007.3 0.0
26/03:00pm 30.2 32.4 21.8 60 5.7 E 13 20 7 11 1007.7 1007.5 0.0
26/02:30pm 30.4 31.5 21.2 58 6.2 ESE 17 24 9 13 1007.7 1007.5 0.0
26/02:00pm 30.4 33.7 22.6 63 5.3 ESE 9 15 5 8 1008.1 1007.9 0.0
26/01:30pm 30.2 33.9 22.6 63 5.2 SE 7 13 4 7 1008.7 1008.5 0.0
26/01:00pm 30.1 33.0 22.5 63 5.2 ESE 11 15 6 8 1009.3 1009.1 0.0
26/12:30pm 30.4 33.2 22.3 62 5.5 E 11 17 6 9 1009.6 1009.4 0.0
26/12:00pm 30.0 32.4 22.2 63 5.3 ESE 13 20 7 11 1010.0 1009.8 0.0
26/11:30am 29.7 32.6 22.4 65 5.0 ESE 11 17 6 9 1010.5 1010.3 0.0
26/11:00am 29.0 31.0 22.2 66 4.6 ESE 15 20 8 11 1011.1 1010.9 0.0
26/10:30am 28.6 31.7 22.1 68 4.4 ESE 9 15 5 8 1011.4 1011.2 0.0
26/10:00am 28.3 31.0 22.1 69 4.2 ESE 11 15 6 8 1011.2 1011.0 0.0
26/09:30am 27.7 31.3 22.4 73 3.6 ESE 7 13 4 7 1010.9 1010.7 0.0

Other Formats:

Comma delimited format used in spreadsheet applications
http://www.bom.gov.au/fwo/IDD60801/IDD60801.94105.axf

JavaScript Object Notation format (JSON) in row-major order
http://www.bom.gov.au/fwo/IDD60801/IDD60801.94105.json